createdAt,value
2023-04-06T00:01:11.792Z,5.10
2023-04-06T00:03:36.887Z,5.10
2023-04-06T00:06:01.697Z,5.10
2023-04-06T00:08:33.869Z,5.10
2023-04-06T00:10:58.793Z,5.00
2023-04-06T00:13:24.805Z,5.00
2023-04-06T00:15:49.531Z,5.00
2023-04-06T00:18:14.060Z,5.00
2023-04-06T00:20:38.968Z,5.00
2023-04-06T00:23:03.555Z,5.10
2023-04-06T00:25:28.327Z,5.00
2023-04-06T00:27:52.951Z,5.10
2023-04-06T00:30:19.194Z,5.10
2023-04-06T00:32:43.796Z,5.10
2023-04-06T00:35:09.167Z,5.10
2023-04-06T00:37:33.823Z,5.00
2023-04-06T00:39:58.492Z,5.10
2023-04-06T00:42:26.900Z,5.00
2023-04-06T00:44:51.962Z,4.90
2023-04-06T00:47:17.967Z,4.80
2023-04-06T00:49:43.288Z,4.90
2023-04-06T00:52:07.912Z,4.90
2023-04-06T00:54:32.806Z,4.80
2023-04-06T00:56:59.064Z,4.80
2023-04-06T00:59:26.147Z,4.90
2023-04-06T01:01:52.282Z,4.90
2023-04-06T01:04:33.874Z,4.80
2023-04-06T01:06:59.739Z,4.80
2023-04-06T01:09:31.346Z,4.80
2023-04-06T01:11:59.133Z,4.80
2023-04-06T01:14:28.394Z,4.70
2023-04-06T01:17:00.008Z,4.70
2023-04-06T01:19:27.674Z,4.60
2023-04-06T01:21:55.801Z,4.70
2023-04-06T01:24:48.466Z,4.70
2023-04-06T01:27:17.870Z,4.70
2023-04-06T01:30:17.318Z,4.70
2023-04-06T01:32:57.711Z,4.70
2023-04-06T01:35:33.707Z,4.80
2023-04-06T01:38:09.091Z,4.80
2023-04-06T01:40:36.366Z,4.80
2023-04-06T01:43:01.081Z,4.70
2023-04-06T01:45:32.409Z,4.70
2023-04-06T01:48:06.977Z,4.70
2023-04-06T01:50:31.620Z,4.70
2023-04-06T01:52:56.350Z,4.70
2023-04-06T01:55:23.522Z,4.70
2023-04-06T01:58:09.456Z,4.80
2023-04-06T02:00:36.549Z,4.60
2023-04-06T02:03:01.638Z,4.60
2023-04-06T02:05:28.386Z,4.60
2023-04-06T02:07:54.240Z,4.60
2023-04-06T02:10:27.414Z,4.60
2023-04-06T02:12:52.459Z,4.60
2023-04-06T02:15:24.284Z,4.50
2023-04-06T02:17:49.060Z,4.50
2023-04-06T02:20:13.662Z,4.40
2023-04-06T02:22:38.561Z,4.40
2023-04-06T02:25:05.163Z,4.40
2023-04-06T02:27:30.082Z,4.50
2023-04-06T02:29:54.871Z,4.50
2023-04-06T02:32:21.154Z,4.50
2023-04-06T02:34:47.433Z,4.50
2023-04-06T02:37:13.964Z,4.50
2023-04-06T02:39:38.513Z,4.50
2023-04-06T02:42:06.622Z,4.50
2023-04-06T02:44:31.421Z,4.50
2023-04-06T02:46:56.543Z,4.50
2023-04-06T02:49:25.171Z,4.50
2023-04-06T02:51:54.348Z,4.50
2023-04-06T02:54:36.545Z,4.50
2023-04-06T02:57:03.116Z,4.50
2023-04-06T02:59:35.343Z,4.50
2023-04-06T03:02:11.980Z,4.40
2023-04-06T03:04:38.723Z,4.50
2023-04-06T03:07:09.069Z,4.50
2023-04-06T03:09:37.040Z,4.50
2023-04-06T03:12:01.550Z,4.60
2023-04-06T03:14:27.612Z,4.60
2023-04-06T03:16:54.081Z,4.70
2023-04-06T03:19:20.638Z,4.60
2023-04-06T03:21:46.813Z,4.70
2023-04-06T03:24:13.968Z,4.70
2023-04-06T03:26:38.480Z,4.60
2023-04-06T03:29:05.307Z,4.60
2023-04-06T03:31:30.296Z,4.50
2023-04-06T03:34:04.296Z,4.60
2023-04-06T03:36:31.933Z,4.50
2023-04-06T03:38:58.672Z,4.50
2023-04-06T03:41:23.533Z,4.50
2023-04-06T03:44:00.120Z,4.50
2023-04-06T03:46:25.145Z,4.50
2023-04-06T03:48:52.210Z,4.50
2023-04-06T03:51:18.859Z,4.50
2023-04-06T03:53:43.382Z,4.50
2023-04-06T03:56:10.815Z,4.50
2023-04-06T03:58:35.654Z,4.50
2023-04-06T04:01:00.263Z,4.50
2023-04-06T04:03:28.179Z,4.50
2023-04-06T04:05:52.897Z,4.60
2023-04-06T04:08:17.645Z,4.60
2023-04-06T04:10:44.542Z,4.60
2023-04-06T04:13:10.499Z,4.70
2023-04-06T04:15:35.146Z,4.60
2023-04-06T04:17:59.782Z,4.60
2023-04-06T04:20:24.587Z,4.60
2023-04-06T04:22:49.312Z,4.60
2023-04-06T04:25:13.953Z,4.60
2023-04-06T04:27:43.362Z,4.60
2023-04-06T04:30:10.507Z,4.60
2023-04-06T04:32:35.726Z,4.70
2023-04-06T04:35:03.212Z,4.80
2023-04-06T04:37:36.316Z,4.80
2023-04-06T04:40:02.129Z,4.80
2023-04-06T04:42:29.769Z,4.80
2023-04-06T04:44:57.477Z,4.70
2023-04-06T04:47:35.492Z,4.70
2023-04-06T04:50:00.058Z,4.70
2023-04-06T04:52:24.800Z,4.70
2023-04-06T04:55:05.955Z,4.60
2023-04-06T04:57:30.734Z,4.70
2023-04-06T04:59:57.332Z,4.70
2023-04-06T05:02:22.990Z,4.70
2023-04-06T05:05:15.726Z,4.70
2023-04-06T05:07:41.202Z,4.80
2023-04-06T05:10:11.329Z,4.80
2023-04-06T05:12:46.179Z,4.80
2023-04-06T05:15:12.168Z,4.80
2023-04-06T05:17:36.837Z,4.90
2023-04-06T05:20:02.144Z,5.00
2023-04-06T05:22:30.718Z,5.00
2023-04-06T05:25:01.639Z,5.00
2023-04-06T05:27:27.184Z,4.90
2023-04-06T05:29:52.276Z,5.00
2023-04-06T05:32:16.977Z,5.00
2023-04-06T05:34:43.036Z,5.00
2023-04-06T05:37:07.686Z,5.10
2023-04-06T05:39:35.064Z,5.10
2023-04-06T05:41:59.736Z,5.10
2023-04-06T05:44:33.838Z,5.20
2023-04-06T05:47:04.888Z,5.20
2023-04-06T05:49:29.588Z,5.20
2023-04-06T05:51:54.541Z,5.20
2023-04-06T05:54:20.284Z,5.20
2023-04-06T05:56:46.476Z,5.30
2023-04-06T05:59:11.846Z,5.30
2023-04-06T06:01:37.507Z,5.30
2023-04-06T06:04:05.644Z,5.30
2023-04-06T06:06:35.832Z,5.30
2023-04-06T06:09:38.681Z,5.30
2023-04-06T06:12:40.243Z,5.30
2023-04-06T06:15:09.591Z,5.40
2023-04-06T06:17:39.814Z,5.50
2023-04-06T06:20:05.080Z,5.60
2023-04-06T06:22:29.739Z,5.60
2023-04-06T06:24:54.492Z,5.50
2023-04-06T06:27:20.876Z,5.50
2023-04-06T06:29:46.437Z,5.70
2023-04-06T06:32:11.842Z,5.60
2023-04-06T06:34:37.876Z,5.70
2023-04-06T06:37:05.027Z,5.70
2023-04-06T06:39:29.812Z,5.60
2023-04-06T06:41:55.592Z,5.60
2023-04-06T06:44:40.238Z,5.60
2023-04-06T06:47:05.270Z,5.70
2023-04-06T06:49:29.849Z,5.70
2023-04-06T06:51:56.005Z,5.80
2023-04-06T06:54:20.931Z,6.00
2023-04-06T06:56:45.464Z,6.10
2023-04-06T06:59:10.094Z,6.10
2023-04-06T07:01:37.056Z,6.20
2023-04-06T07:04:01.720Z,6.30
2023-04-06T07:06:26.398Z,6.30
2023-04-06T07:08:51.078Z,6.30
2023-04-06T07:11:15.800Z,6.50
2023-04-06T07:13:40.671Z,6.50
2023-04-06T07:16:05.921Z,6.50
2023-04-06T07:18:34.115Z,6.50
2023-04-06T07:21:00.158Z,6.60
2023-04-06T07:23:24.923Z,6.70
2023-04-06T07:25:52.084Z,6.80
2023-04-06T07:28:16.735Z,6.70
2023-04-06T07:30:43.037Z,6.70
2023-04-06T07:33:08.962Z,6.60
2023-04-06T07:35:37.801Z,6.70
2023-04-06T07:38:03.879Z,6.70
2023-04-06T07:40:29.535Z,6.80
2023-04-06T07:42:56.814Z,6.80
2023-04-06T07:45:23.255Z,6.80
2023-04-06T07:47:48.760Z,6.80
2023-04-06T07:50:14.477Z,6.80
2023-04-06T07:52:41.251Z,6.90
2023-04-06T07:55:07.835Z,7.00
2023-04-06T07:57:32.390Z,7.20
2023-04-06T07:59:59.948Z,7.30
2023-04-06T08:02:24.774Z,7.40
2023-04-06T08:04:49.902Z,7.50
2023-04-06T08:07:14.652Z,7.50
2023-04-06T08:09:40.708Z,7.70
2023-04-06T08:12:05.487Z,7.80
2023-04-06T08:14:33.295Z,7.80
2023-04-06T08:16:57.959Z,8.00
2023-04-06T08:19:22.819Z,8.10
2023-04-06T08:21:48.249Z,8.10
2023-04-06T08:24:12.943Z,8.30
2023-04-06T08:26:38.955Z,8.40
2023-04-06T08:29:08.476Z,8.40
2023-04-06T08:31:33.137Z,8.40
2023-04-06T08:34:03.947Z,8.50
2023-04-06T08:36:28.489Z,8.60
2023-04-06T08:38:53.503Z,8.80
2023-04-06T08:41:19.011Z,9.00
2023-04-06T08:43:48.824Z,9.10
2023-04-06T08:46:14.035Z,9.20
2023-04-06T08:48:40.532Z,9.30
2023-04-06T08:51:05.980Z,9.50
2023-04-06T08:53:30.911Z,9.80
2023-04-06T08:55:56.038Z,10.10
2023-04-06T08:58:35.279Z,10.40
2023-04-06T09:01:05.960Z,10.30
2023-04-06T09:03:32.865Z,10.50
2023-04-06T09:05:57.828Z,10.50
2023-04-06T09:08:22.726Z,10.60
2023-04-06T09:10:53.589Z,10.60
2023-04-06T09:13:18.317Z,10.50
2023-04-06T09:15:42.986Z,10.70
2023-04-06T09:18:09.417Z,10.80
2023-04-06T09:20:34.035Z,11.00
2023-04-06T09:22:58.963Z,10.60
2023-04-06T09:25:25.640Z,10.60
2023-04-06T09:27:50.869Z,10.30
2023-04-06T09:30:17.701Z,10.20
2023-04-06T09:32:50.344Z,10.20
2023-04-06T09:35:17.021Z,10.30
2023-04-06T09:37:41.551Z,10.10
2023-04-06T09:40:07.288Z,10.20
2023-04-06T09:42:31.854Z,10.10
2023-04-06T09:44:57.480Z,10.20
2023-04-06T09:47:25.839Z,10.20
2023-04-06T09:49:55.659Z,10.10
2023-04-06T09:52:23.946Z,10.10
2023-04-06T09:54:52.402Z,10.10
2023-04-06T09:57:26.710Z,10.00
2023-04-06T09:59:59.501Z,10.20
2023-04-06T10:02:33.031Z,10.40
2023-04-06T10:05:02.481Z,10.60
2023-04-06T10:07:29.885Z,10.60
2023-04-06T10:09:56.647Z,10.60
2023-04-06T10:12:21.755Z,10.60
2023-04-06T10:14:47.190Z,10.80
2023-04-06T10:17:12.739Z,10.70
2023-04-06T10:19:44.176Z,10.70
2023-04-06T10:22:13.124Z,10.90
2023-04-06T10:24:40.385Z,10.80
2023-04-06T10:27:06.267Z,10.50
2023-04-06T10:29:31.162Z,10.40
2023-04-06T10:31:56.495Z,10.40
2023-04-06T10:34:21.068Z,10.40
2023-04-06T10:36:45.713Z,10.60
2023-04-06T10:39:10.188Z,10.60
2023-04-06T10:41:37.495Z,10.60
2023-04-06T10:44:02.308Z,10.60
2023-04-06T10:46:31.770Z,10.70
2023-04-06T10:48:56.760Z,10.70
2023-04-06T10:51:28.138Z,10.70
2023-04-06T10:53:55.277Z,10.70
2023-04-06T10:56:23.315Z,10.70
2023-04-06T10:58:52.921Z,10.70
2023-04-06T11:01:22.144Z,10.80
2023-04-06T11:04:06.394Z,10.80
2023-04-06T11:06:40.581Z,10.90
2023-04-06T11:09:05.364Z,10.90
2023-04-06T11:11:30.252Z,10.90
2023-04-06T11:13:57.664Z,10.90
2023-04-06T11:16:23.598Z,11.10
2023-04-06T11:18:53.881Z,10.90
2023-04-06T11:21:18.693Z,10.80
2023-04-06T11:23:43.379Z,10.90
2023-04-06T11:26:13.477Z,11.00
2023-04-06T11:28:37.967Z,11.10
2023-04-06T11:31:04.133Z,11.20
2023-04-06T11:33:28.878Z,11.30
2023-04-06T11:35:54.979Z,11.20
2023-04-06T11:38:21.966Z,11.40
2023-04-06T11:40:46.607Z,11.10
2023-04-06T11:43:14.100Z,11.20
2023-04-06T11:45:44.036Z,11.30
2023-04-06T11:48:25.400Z,11.20
2023-04-06T11:50:50.945Z,11.30
2023-04-06T11:53:15.740Z,11.50
2023-04-06T11:55:41.215Z,11.60
2023-04-06T11:58:05.923Z,11.70
2023-04-06T12:00:35.521Z,11.70
2023-04-06T12:03:00.473Z,11.80
2023-04-06T12:05:26.693Z,11.80
2023-04-06T12:07:51.348Z,11.90
2023-04-06T12:10:19.252Z,12.00
2023-04-06T12:12:44.502Z,11.80
2023-04-06T12:15:10.476Z,11.80
2023-04-06T12:17:38.061Z,11.70
2023-04-06T12:20:05.981Z,11.60
2023-04-06T12:22:50.670Z,11.50
2023-04-06T12:25:15.352Z,11.60
2023-04-06T12:27:39.916Z,11.70
2023-04-06T12:30:04.752Z,11.80
2023-04-06T12:32:29.506Z,11.80
2023-04-06T12:34:55.114Z,11.90
2023-04-06T12:37:19.763Z,11.90
2023-04-06T12:39:46.668Z,12.00
2023-04-06T12:42:11.334Z,12.10
2023-04-06T12:44:36.130Z,12.20
2023-04-06T12:47:00.774Z,12.00
2023-04-06T12:49:25.643Z,12.10
2023-04-06T12:51:54.006Z,12.30
2023-04-06T12:54:20.947Z,12.40
2023-04-06T12:56:47.273Z,12.20
2023-04-06T12:59:12.033Z,12.10
2023-04-06T13:01:39.996Z,12.00
2023-04-06T13:04:04.630Z,12.10
2023-04-06T13:06:29.639Z,12.00
2023-04-06T13:08:54.381Z,12.00
2023-04-06T13:11:21.664Z,12.00
2023-04-06T13:13:47.854Z,12.10
2023-04-06T13:16:16.433Z,12.20
2023-04-06T13:18:41.700Z,12.10
2023-04-06T13:21:07.145Z,12.20
2023-04-06T13:23:31.834Z,12.30
2023-04-06T13:26:04.265Z,12.30
2023-04-06T13:28:29.278Z,12.40
2023-04-06T13:30:55.442Z,12.50
2023-04-06T13:33:20.135Z,12.50
2023-04-06T13:35:49.423Z,12.30
2023-04-06T13:38:14.206Z,12.10
2023-04-06T13:40:41.564Z,12.10
2023-04-06T13:43:06.497Z,12.00
2023-04-06T13:45:31.540Z,11.90
2023-04-06T13:47:57.677Z,11.90
2023-04-06T13:50:24.029Z,11.80
2023-04-06T13:52:48.577Z,11.80
2023-04-06T13:55:12.988Z,11.80
2023-04-06T13:57:38.893Z,11.90
2023-04-06T14:00:06.067Z,11.90
2023-04-06T14:02:32.789Z,12.00
2023-04-06T14:04:58.689Z,11.90
2023-04-06T14:07:24.745Z,11.80
2023-04-06T14:09:49.291Z,11.80
2023-04-06T14:12:13.936Z,11.70
2023-04-06T14:14:38.329Z,11.90
2023-04-06T14:17:02.957Z,12.00
2023-04-06T14:19:31.090Z,12.10
2023-04-06T14:21:57.404Z,12.20
2023-04-06T14:24:22.858Z,12.30
2023-04-06T14:26:47.500Z,12.30
2023-04-06T14:29:11.920Z,12.40
2023-04-06T14:31:36.611Z,12.30
2023-04-06T14:34:03.431Z,12.20
2023-04-06T14:36:30.290Z,12.10
2023-04-06T14:38:56.102Z,12.10
2023-04-06T14:41:21.532Z,12.30
2023-04-06T14:43:46.508Z,12.20
2023-04-06T14:46:11.169Z,12.30
2023-04-06T14:48:35.736Z,12.30
2023-04-06T14:51:00.279Z,12.20
2023-04-06T14:53:24.926Z,12.20
2023-04-06T14:55:52.521Z,12.20
2023-04-06T14:58:17.020Z,12.20
2023-04-06T15:00:47.430Z,12.20
2023-04-06T15:03:12.241Z,12.20
2023-04-06T15:05:36.932Z,12.30
2023-04-06T15:08:01.439Z,12.20
2023-04-06T15:10:25.971Z,12.30
2023-04-06T15:12:51.918Z,12.20
2023-04-06T15:15:16.493Z,12.20
2023-04-06T15:17:41.138Z,12.10
2023-04-06T15:20:06.651Z,12.00
2023-04-06T15:22:31.498Z,12.00
2023-04-06T15:24:55.974Z,11.90
2023-04-06T15:27:20.634Z,11.80
2023-04-06T15:29:46.556Z,11.70
2023-04-06T15:32:11.758Z,11.80
2023-04-06T15:34:36.202Z,11.70
2023-04-06T15:37:05.064Z,11.60
2023-04-06T15:39:32.636Z,11.50
2023-04-06T15:41:58.244Z,11.50
2023-04-06T15:44:22.681Z,11.40
2023-04-06T15:46:48.581Z,11.40
2023-04-06T15:49:13.037Z,11.40
2023-04-06T15:51:38.778Z,11.30
2023-04-06T15:54:03.258Z,11.20
2023-04-06T15:56:27.792Z,11.20
2023-04-06T15:58:52.493Z,11.20
2023-04-06T16:01:17.979Z,11.10
2023-04-06T16:03:46.613Z,11.20
2023-04-06T16:06:11.557Z,11.10
2023-04-06T16:08:36.771Z,11.10
2023-04-06T16:11:03.847Z,11.00
2023-04-06T16:13:28.362Z,11.00
2023-04-06T16:15:53.984Z,10.90
2023-04-06T16:18:18.561Z,10.90
2023-04-06T16:20:44.901Z,10.90
2023-04-06T16:23:09.479Z,10.90
2023-04-06T16:25:34.029Z,10.90
2023-04-06T16:27:58.468Z,10.80
2023-04-06T16:30:24.799Z,10.80
2023-04-06T16:32:52.963Z,10.80
2023-04-06T16:35:17.672Z,10.70
2023-04-06T16:37:43.554Z,10.70
2023-04-06T16:40:11.192Z,10.70
2023-04-06T16:42:36.990Z,10.70
2023-04-06T16:45:01.477Z,10.70
2023-04-06T16:47:26.168Z,10.70
2023-04-06T16:49:50.682Z,10.70
2023-04-06T16:52:15.233Z,10.70
2023-04-06T16:54:41.159Z,10.80
2023-04-06T16:57:06.498Z,10.90
2023-04-06T16:59:33.492Z,10.90
2023-04-06T17:01:58.067Z,10.90
2023-04-06T17:04:23.046Z,10.80
2023-04-06T17:06:47.506Z,10.80
2023-04-06T17:09:12.064Z,10.90
2023-04-06T17:11:46.727Z,11.00
2023-04-06T17:14:11.797Z,11.00
2023-04-06T17:16:36.399Z,10.80
2023-04-06T17:19:01.057Z,10.10
2023-04-06T17:21:26.362Z,9.60
2023-04-06T17:23:51.517Z,9.30
2023-04-06T17:26:16.156Z,8.90
2023-04-06T17:28:42.210Z,8.60
2023-04-06T17:31:10.450Z,8.40
2023-04-06T17:33:35.441Z,8.30
2023-04-06T17:36:00.170Z,8.30
2023-04-06T17:38:25.115Z,8.20
2023-04-06T17:40:50.044Z,8.10
2023-04-06T17:43:14.587Z,7.90
2023-04-06T17:45:40.863Z,7.70
2023-04-06T17:48:05.882Z,7.50
2023-04-06T17:50:30.685Z,7.40
2023-04-06T17:52:55.417Z,7.30
2023-04-06T17:55:21.233Z,7.30
2023-04-06T17:57:46.924Z,7.40
2023-04-06T18:00:12.428Z,7.40
2023-04-06T18:02:38.828Z,7.40
2023-04-06T18:05:03.645Z,7.30
2023-04-06T18:07:28.244Z,7.20
2023-04-06T18:09:52.736Z,7.20
2023-04-06T18:12:17.290Z,7.20
2023-04-06T18:14:42.550Z,7.20
2023-04-06T18:17:07.126Z,7.20
2023-04-06T18:19:34.676Z,7.10
2023-04-06T18:21:59.432Z,7.10
2023-04-06T18:24:40.547Z,7.10
2023-04-06T18:27:09.253Z,7.20
2023-04-06T18:29:37.431Z,7.10
2023-04-06T18:32:02.038Z,7.00
2023-04-06T18:34:28.625Z,6.90
2023-04-06T18:36:54.657Z,6.60
2023-04-06T18:39:19.134Z,6.60
2023-04-06T18:41:43.625Z,6.60
2023-04-06T18:44:08.032Z,6.60
2023-04-06T18:46:32.720Z,6.70
2023-04-06T18:48:57.485Z,6.70
2023-04-06T18:51:22.787Z,6.60
2023-04-06T18:53:48.680Z,6.60
2023-04-06T18:56:19.923Z,6.70
2023-04-06T18:58:53.349Z,6.80
2023-04-06T19:01:31.206Z,6.70
2023-04-06T19:03:58.835Z,6.70
2023-04-06T19:06:24.492Z,6.70
2023-04-06T19:08:50.857Z,6.60
2023-04-06T19:11:19.865Z,6.70
2023-04-06T19:13:53.837Z,6.70
2023-04-06T19:16:22.089Z,6.70
2023-04-06T19:18:46.921Z,6.60
2023-04-06T19:21:25.120Z,6.50
2023-04-06T19:23:56.012Z,6.50
2023-04-06T19:26:23.973Z,6.40
2023-04-06T19:28:49.491Z,6.40
2023-04-06T19:31:15.938Z,6.40
2023-04-06T19:33:40.796Z,6.50
2023-04-06T19:36:06.738Z,6.50
2023-04-06T19:38:31.310Z,6.50
2023-04-06T19:40:59.571Z,6.40
2023-04-06T19:43:24.228Z,6.40
2023-04-06T19:45:51.667Z,6.30
2023-04-06T19:48:16.182Z,6.40
2023-04-06T19:50:40.856Z,6.30
2023-04-06T19:53:05.429Z,6.30
2023-04-06T19:55:33.074Z,6.20
2023-04-06T19:57:59.701Z,6.10
2023-04-06T20:00:24.612Z,6.10
2023-04-06T20:02:49.447Z,6.10
2023-04-06T20:05:14.296Z,6.20
2023-04-06T20:07:41.237Z,6.20
2023-04-06T20:10:07.228Z,6.30
2023-04-06T20:12:31.849Z,6.40
2023-04-06T20:14:58.148Z,6.50
2023-04-06T20:17:23.140Z,6.50
2023-04-06T20:19:48.001Z,6.50
2023-04-06T20:22:12.673Z,6.60
2023-04-06T20:24:37.170Z,6.70
2023-04-06T20:27:01.861Z,6.70
2023-04-06T20:29:27.352Z,6.60
2023-04-06T20:31:56.072Z,6.60
2023-04-06T20:34:20.937Z,6.50
2023-04-06T20:36:45.425Z,6.40
2023-04-06T20:39:11.567Z,6.40
2023-04-06T20:41:36.152Z,6.40
2023-04-06T20:44:02.671Z,6.40
2023-04-06T20:46:27.214Z,6.40
2023-04-06T20:48:54.216Z,6.40
2023-04-06T20:51:23.339Z,6.40
2023-04-06T20:53:48.768Z,6.40
2023-04-06T20:56:13.280Z,6.40
2023-04-06T20:58:37.769Z,6.40
2023-04-06T21:01:02.369Z,6.30
2023-04-06T21:03:27.162Z,6.30
2023-04-06T21:05:53.518Z,6.30
2023-04-06T21:08:17.974Z,6.30
2023-04-06T21:10:42.414Z,6.30
2023-04-06T21:13:07.537Z,6.30
2023-04-06T21:15:31.921Z,6.40
2023-04-06T21:17:56.460Z,6.40
2023-04-06T21:20:21.440Z,6.40
2023-04-06T21:22:47.371Z,6.40
2023-04-06T21:25:12.744Z,6.40
2023-04-06T21:27:38.305Z,6.40
2023-04-06T21:30:02.679Z,6.40
2023-04-06T21:32:27.651Z,6.40
2023-04-06T21:34:52.038Z,6.30
2023-04-06T21:37:18.354Z,6.30
2023-04-06T21:39:44.959Z,6.20
2023-04-06T21:42:09.483Z,6.30
2023-04-06T21:44:35.187Z,6.30
2023-04-06T21:46:59.630Z,6.30
2023-04-06T21:49:24.346Z,6.20
2023-04-06T21:51:49.037Z,6.20
2023-04-06T21:54:13.895Z,6.30
2023-04-06T21:56:40.914Z,6.30
2023-04-06T21:59:05.447Z,6.30
2023-04-06T22:01:30.028Z,6.40
2023-04-06T22:03:54.670Z,6.40
2023-04-06T22:06:19.354Z,6.30
2023-04-06T22:08:44.239Z,6.40
2023-04-06T22:11:10.306Z,6.30
2023-04-06T22:13:36.469Z,6.30
2023-04-06T22:16:01.047Z,6.30
2023-04-06T22:18:25.491Z,6.30
2023-04-06T22:20:49.928Z,6.20
2023-04-06T22:23:17.369Z,6.10
2023-04-06T22:25:41.981Z,6.00
2023-04-06T22:28:07.984Z,6.00
2023-04-06T22:30:34.007Z,6.00
2023-04-06T22:32:58.480Z,5.90
2023-04-06T22:35:23.064Z,5.80
2023-04-06T22:37:47.576Z,5.80
2023-04-06T22:40:13.002Z,5.70
2023-04-06T22:42:37.349Z,5.70
2023-04-06T22:45:01.922Z,5.80
2023-04-06T22:47:29.033Z,5.70
2023-04-06T22:49:53.575Z,5.70
2023-04-06T22:52:17.962Z,5.60
2023-04-06T22:54:42.642Z,5.50
2023-04-06T22:57:07.105Z,5.40
2023-04-06T22:59:31.512Z,5.30
2023-04-06T23:01:56.954Z,5.30
2023-04-06T23:04:23.050Z,5.30
2023-04-06T23:06:47.488Z,5.30
2023-04-06T23:09:11.971Z,5.30
2023-04-06T23:11:36.378Z,5.30
2023-04-06T23:14:01.515Z,5.20
2023-04-06T23:16:26.274Z,5.20
2023-04-06T23:18:50.853Z,5.20
2023-04-06T23:21:16.791Z,5.30
2023-04-06T23:23:41.602Z,5.30
2023-04-06T23:26:06.577Z,5.20
2023-04-06T23:28:31.263Z,5.30
2023-04-06T23:30:55.871Z,5.20
2023-04-06T23:33:20.572Z,5.20
2023-04-06T23:35:45.190Z,5.20
2023-04-06T23:38:11.149Z,5.20
2023-04-06T23:40:38.445Z,5.10
2023-04-06T23:43:02.952Z,5.20
2023-04-06T23:45:27.389Z,5.30
2023-04-06T23:47:51.935Z,5.40
2023-04-06T23:50:16.483Z,5.40
2023-04-06T23:52:40.848Z,5.30
2023-04-06T23:55:07.540Z,5.30
2023-04-06T23:57:32.034Z,5.30
2023-04-06T23:59:58.930Z,5.30
